createdAt,value
2023-04-22T00:00:31.036Z,7.0459
2023-04-22T00:01:39.090Z,7.0653
2023-04-22T00:02:47.128Z,7.1355
2023-04-22T00:03:55.207Z,7.0409
2023-04-22T00:05:03.353Z,6.9871
2023-04-22T00:06:11.530Z,7.0125
2023-04-22T00:07:19.420Z,6.9715
2023-04-22T00:08:27.473Z,6.9330
2023-04-22T00:09:35.634Z,6.8870
2023-04-22T00:10:43.558Z,6.7375
2023-04-22T00:11:51.685Z,6.5997
2023-04-22T00:12:59.766Z,6.6295
2023-04-22T00:14:07.782Z,6.5923
2023-04-22T00:15:16.042Z,6.6427
2023-04-22T00:16:23.916Z,6.6192
2023-04-22T00:17:32.025Z,6.5606
2023-04-22T00:18:39.899Z,6.4819
2023-04-22T00:19:47.949Z,6.3007
2023-04-22T00:20:56.179Z,6.3504
2023-04-22T00:22:04.229Z,6.3771
2023-04-22T00:23:12.347Z,6.3562
2023-04-22T00:24:20.343Z,6.3501
2023-04-22T00:25:28.427Z,6.2104
2023-04-22T00:26:36.554Z,6.1603
2023-04-22T00:27:44.422Z,6.0626
2023-04-22T00:28:52.659Z,5.9816
2023-04-22T00:30:00.708Z,6.0008
2023-04-22T00:31:08.804Z,5.9915
2023-04-22T00:32:16.704Z,6.0764
2023-04-22T00:33:24.747Z,6.0922
2023-04-22T00:34:32.806Z,6.1141
2023-04-22T00:35:41.640Z,6.1809
2023-04-22T00:36:49.030Z,6.2608
2023-04-22T00:37:57.218Z,6.2446
2023-04-22T00:39:05.212Z,6.2003
2023-04-22T00:40:13.320Z,6.2064
2023-04-22T00:41:21.329Z,6.1509
2023-04-22T00:42:29.438Z,6.2097
2023-04-22T00:43:37.479Z,6.1549
2023-04-22T00:44:45.547Z,6.1012
2023-04-22T00:45:53.741Z,6.0374
2023-04-22T00:47:01.595Z,6.0298
2023-04-22T00:48:09.699Z,6.0409
2023-04-22T00:49:17.677Z,5.9846
2023-04-22T00:50:26.117Z,5.9552
2023-04-22T00:51:33.989Z,5.9968
2023-04-22T00:52:42.014Z,5.8833
2023-04-22T00:53:50.044Z,5.5226
2023-04-22T00:54:58.139Z,5.1000
2023-04-22T00:56:06.198Z,5.0530
2023-04-22T00:57:14.355Z,5.1814
2023-04-22T00:58:22.291Z,5.2144
2023-04-22T00:59:30.398Z,5.1442
2023-04-22T01:00:38.460Z,5.0338
2023-04-22T01:01:46.442Z,5.0557
2023-04-22T01:02:54.597Z,5.0256
2023-04-22T01:04:02.627Z,5.2198
2023-04-22T01:05:10.954Z,5.4444
2023-04-22T01:06:18.746Z,5.5162
2023-04-22T01:07:26.957Z,5.5865
2023-04-22T01:08:34.930Z,5.6190
2023-04-22T01:09:43.050Z,5.6792
2023-04-22T01:10:51.052Z,5.6607
2023-04-22T01:11:59.112Z,5.5873
2023-04-22T01:13:07.213Z,5.6974
2023-04-22T01:14:15.234Z,5.7794
2023-04-22T01:15:23.305Z,5.8229
2023-04-22T01:16:31.360Z,5.7365
2023-04-22T01:17:39.389Z,5.5650
2023-04-22T01:18:47.388Z,5.3508
2023-04-22T01:19:55.593Z,5.0387
2023-04-22T01:21:03.823Z,4.9712
2023-04-22T01:22:11.947Z,5.0771
2023-04-22T01:23:19.765Z,5.1833
2023-04-22T01:24:27.930Z,5.1522
2023-04-22T01:25:35.896Z,5.2079
2023-04-22T01:26:43.951Z,5.2440
2023-04-22T01:27:52.196Z,5.3050
2023-04-22T01:29:00.121Z,5.3767
2023-04-22T01:30:08.221Z,5.5169
2023-04-22T01:31:16.094Z,5.6012
2023-04-22T01:32:24.203Z,5.5505
2023-04-22T01:33:32.222Z,5.5160
2023-04-22T01:34:40.372Z,5.4774
2023-04-22T01:35:48.604Z,5.5177
2023-04-22T01:36:56.690Z,5.5823
2023-04-22T01:38:04.603Z,5.5352
2023-04-22T01:39:12.720Z,5.4860
2023-04-22T01:40:20.762Z,5.4658
2023-04-22T01:41:28.815Z,5.5827
2023-04-22T01:42:36.873Z,5.7010
2023-04-22T01:43:44.958Z,5.8046
2023-04-22T01:44:53.169Z,5.4149
2023-04-22T01:46:00.944Z,5.1314
2023-04-22T01:47:09.042Z,5.0981
2023-04-22T01:48:17.083Z,5.2096
2023-04-22T01:49:25.255Z,5.2276
2023-04-22T01:50:33.336Z,5.2047
2023-04-22T01:51:41.456Z,5.3109
2023-04-22T01:52:49.618Z,5.3611
2023-04-22T01:53:57.491Z,5.3243
2023-04-22T01:55:05.586Z,5.0118
2023-04-22T01:56:13.641Z,4.9106
2023-04-22T01:57:21.750Z,4.6264
2023-04-22T01:58:29.840Z,4.4993
2023-04-22T01:59:38.194Z,4.5842
2023-04-22T02:00:45.792Z,4.7080
2023-04-22T02:01:53.879Z,4.8326
2023-04-22T02:03:02.282Z,4.9281
2023-04-22T02:04:10.181Z,4.9598
2023-04-22T02:05:18.232Z,5.0731
2023-04-22T02:06:26.329Z,5.0447
2023-04-22T02:07:34.374Z,4.9823
2023-04-22T02:08:42.636Z,5.0815
2023-04-22T02:09:50.977Z,5.1614
2023-04-22T02:10:58.619Z,5.2783
2023-04-22T02:12:06.654Z,5.2959
2023-04-22T02:13:14.722Z,4.9222
2023-04-22T02:14:22.792Z,4.5421
2023-04-22T02:15:30.716Z,4.5308
2023-04-22T02:16:38.798Z,4.5489
2023-04-22T02:17:46.818Z,4.7809
2023-04-22T02:18:55.143Z,4.9905
2023-04-22T02:20:03.166Z,5.1454
2023-04-22T02:21:11.388Z,5.2495
2023-04-22T02:22:19.272Z,5.3584
2023-04-22T02:23:27.294Z,5.3886
2023-04-22T02:24:35.549Z,5.2224
2023-04-22T02:25:43.412Z,4.9735
2023-04-22T02:26:51.490Z,4.8326
2023-04-22T02:27:59.535Z,4.6830
2023-04-22T02:29:07.609Z,4.7496
2023-04-22T02:30:15.648Z,4.9764
2023-04-22T02:31:23.614Z,5.1240
2023-04-22T02:32:31.792Z,5.2817
2023-04-22T02:33:39.907Z,5.4303
2023-04-22T02:34:47.954Z,5.4761
2023-04-22T02:35:56.124Z,5.4971
2023-04-22T02:37:04.084Z,5.5184
2023-04-22T02:38:12.261Z,5.5553
2023-04-22T02:39:20.239Z,5.5410
2023-04-22T02:40:28.399Z,5.2991
2023-04-22T02:41:36.450Z,5.2760
2023-04-22T02:42:44.403Z,5.3472
2023-04-22T02:43:52.497Z,5.2148
2023-04-22T02:45:00.439Z,5.0942
2023-04-22T02:46:08.518Z,5.1814
2023-04-22T02:47:16.587Z,5.2619
2023-04-22T02:48:24.777Z,5.2207
2023-04-22T02:49:32.854Z,4.9417
2023-04-22T02:50:40.949Z,4.8259
2023-04-22T02:51:49.022Z,5.0067
2023-04-22T02:52:57.125Z,5.1847
2023-04-22T02:54:05.191Z,5.3851
2023-04-22T02:55:13.248Z,5.4050
2023-04-22T02:56:21.267Z,5.2344
2023-04-22T02:57:29.518Z,5.1810
2023-04-22T02:58:37.509Z,5.3744
2023-04-22T02:59:45.345Z,5.4628
2023-04-22T03:00:53.440Z,5.6468
2023-04-22T03:02:01.714Z,5.6745
2023-04-22T03:03:09.819Z,5.5858
2023-04-22T03:04:17.843Z,5.5390
2023-04-22T03:05:25.838Z,5.4607
2023-04-22T03:06:33.886Z,5.4145
2023-04-22T03:07:41.961Z,5.5019
2023-04-22T03:08:50.070Z,5.7376
2023-04-22T03:09:58.292Z,5.8278
2023-04-22T03:11:06.125Z,5.9436
2023-04-22T03:12:14.222Z,5.8839
2023-04-22T03:13:22.273Z,5.9064
2023-04-22T03:14:30.252Z,5.7950
2023-04-22T03:15:38.294Z,5.6123
2023-04-22T03:16:46.378Z,5.3741
2023-04-22T03:17:54.565Z,5.3563
2023-04-22T03:19:02.654Z,5.5268
2023-04-22T03:20:10.766Z,5.6836
2023-04-22T03:21:18.777Z,5.4853
2023-04-22T03:22:26.829Z,5.5259
2023-04-22T03:23:34.887Z,5.5753
2023-04-22T03:24:42.949Z,5.4261
2023-04-22T03:25:51.112Z,5.4233
2023-04-22T03:26:59.125Z,5.3458
2023-04-22T03:28:07.148Z,5.3853
2023-04-22T03:29:15.089Z,5.4504
2023-04-22T03:30:23.185Z,5.3058
2023-04-22T03:31:31.304Z,5.2043
2023-04-22T03:32:39.447Z,5.0149
2023-04-22T03:33:47.457Z,4.9230
2023-04-22T03:34:55.576Z,4.9920
2023-04-22T03:36:03.642Z,4.9041
2023-04-22T03:37:11.781Z,4.7526
2023-04-22T03:38:20.115Z,4.7486
2023-04-22T03:39:27.842Z,4.8764
2023-04-22T03:40:35.899Z,4.9623
2023-04-22T03:41:44.038Z,4.9441
2023-04-22T03:42:52.034Z,5.0098
2023-04-22T03:44:01.775Z,4.9937
2023-04-22T03:45:12.870Z,4.9908
2023-04-22T03:46:21.210Z,5.0248
2023-04-22T03:47:29.326Z,4.9987
2023-04-22T03:48:37.226Z,5.0832
2023-04-22T03:49:45.320Z,5.0477
2023-04-22T03:50:53.365Z,4.9535
2023-04-22T03:52:01.441Z,5.0229
2023-04-22T03:53:09.641Z,4.8244
2023-04-22T03:54:17.551Z,4.1778
2023-04-22T03:55:25.639Z,4.1623
2023-04-22T03:56:33.707Z,4.1854
2023-04-22T03:57:41.651Z,4.2136
2023-04-22T03:58:49.732Z,4.3561
2023-04-22T03:59:57.762Z,4.5030
2023-04-22T04:01:05.942Z,4.6119
2023-04-22T04:02:14.125Z,4.7193
2023-04-22T04:03:22.234Z,4.8179
2023-04-22T04:04:30.646Z,4.8909
2023-04-22T04:05:38.339Z,5.0208
2023-04-22T04:06:46.241Z,5.1072
2023-04-22T04:07:54.308Z,5.0614
2023-04-22T04:09:02.468Z,5.0242
2023-04-22T04:10:10.552Z,5.0599
2023-04-22T04:11:18.526Z,5.0931
2023-04-22T04:12:26.517Z,5.2428
2023-04-22T04:13:34.573Z,5.2707
2023-04-22T04:14:42.680Z,5.3493
2023-04-22T04:15:50.924Z,5.4616
2023-04-22T04:16:58.905Z,5.5453
2023-04-22T04:18:07.072Z,5.5764
2023-04-22T04:19:14.997Z,5.5761
2023-04-22T04:20:23.145Z,5.4381
2023-04-22T04:21:31.141Z,5.4786
2023-04-22T04:22:39.242Z,5.4093
2023-04-22T04:23:47.238Z,5.3071
2023-04-22T04:24:55.505Z,5.4986
2023-04-22T04:26:03.423Z,5.6504
2023-04-22T04:27:11.349Z,5.7458
2023-04-22T04:28:19.442Z,5.8206
2023-04-22T04:29:27.511Z,5.8728
2023-04-22T04:30:35.768Z,5.8795
2023-04-22T04:31:44.018Z,5.8078
2023-04-22T04:32:51.917Z,5.7965
2023-04-22T04:33:59.872Z,5.8057
2023-04-22T04:35:08.102Z,5.8490
2023-04-22T04:36:16.071Z,5.8198
2023-04-22T04:37:24.046Z,5.7395
2023-04-22T04:38:32.118Z,5.5448
2023-04-22T04:39:40.523Z,5.2156
2023-04-22T04:40:48.189Z,4.8228
2023-04-22T04:41:56.275Z,4.7727
2023-04-22T04:43:04.340Z,4.8993
2023-04-22T04:44:13.125Z,4.8448
2023-04-22T04:45:20.599Z,4.7502
2023-04-22T04:46:28.748Z,4.7688
2023-04-22T04:47:36.804Z,4.8528
2023-04-22T04:48:44.746Z,4.9872
2023-04-22T04:49:52.849Z,4.9041
2023-04-22T04:51:01.006Z,4.6643
2023-04-22T04:52:09.005Z,4.6016
2023-04-22T04:53:17.020Z,4.6327
2023-04-22T04:54:25.045Z,4.5831
2023-04-22T04:55:33.046Z,4.7236
2023-04-22T04:56:41.130Z,4.7540
2023-04-22T04:57:49.232Z,4.5632
2023-04-22T04:58:57.615Z,4.4919
2023-04-22T05:00:05.514Z,4.5192
2023-04-22T05:01:13.562Z,4.7011
2023-04-22T05:02:21.775Z,4.8532
2023-04-22T05:03:29.816Z,4.8007
2023-04-22T05:04:37.855Z,4.8558
2023-04-22T05:05:45.718Z,4.9264
2023-04-22T05:06:53.815Z,5.0191
2023-04-22T05:08:02.072Z,5.0086
2023-04-22T05:09:09.979Z,5.0944
2023-04-22T05:10:17.925Z,5.1534
2023-04-22T05:11:26.001Z,5.1013
2023-04-22T05:12:34.047Z,5.0790
2023-04-22T05:13:42.262Z,5.1145
2023-04-22T05:14:50.370Z,5.2602
2023-04-22T05:15:58.425Z,5.3012
2023-04-22T05:17:06.391Z,5.2499
2023-04-22T05:18:14.470Z,5.2951
2023-04-22T05:19:22.596Z,5.2631
2023-04-22T05:20:31.612Z,5.3012
2023-04-22T05:21:43.550Z,5.3387
2023-04-22T05:22:51.595Z,5.3092
2023-04-22T05:23:59.592Z,5.2930
2023-04-22T05:25:07.648Z,5.4111
2023-04-22T05:26:15.788Z,5.5900
2023-04-22T05:27:23.923Z,5.7676
2023-04-22T05:28:31.956Z,5.9457
2023-04-22T05:29:40.221Z,6.0247
2023-04-22T05:30:48.100Z,5.9940
2023-04-22T05:31:56.551Z,6.1032
2023-04-22T05:33:04.301Z,6.2396
2023-04-22T05:34:12.506Z,6.3550
2023-04-22T05:35:20.341Z,6.3640
2023-04-22T05:36:31.174Z,6.3388
2023-04-22T05:37:41.246Z,6.4355
2023-04-22T05:38:49.284Z,6.5694
2023-04-22T05:39:57.367Z,6.6814
2023-04-22T05:41:05.675Z,6.6686
2023-04-22T05:42:13.640Z,6.4853
2023-04-22T05:43:21.583Z,6.4212
2023-04-22T05:44:29.683Z,6.1996
2023-04-22T05:45:37.816Z,5.9856
2023-04-22T05:46:45.846Z,5.9325
2023-04-22T05:47:54.105Z,5.9274
2023-04-22T05:49:01.920Z,6.1210
2023-04-22T05:50:10.040Z,6.4124
2023-04-22T05:51:18.171Z,6.6043
2023-04-22T05:52:26.038Z,6.6552
2023-04-22T05:53:34.183Z,6.6304
2023-04-22T05:54:42.179Z,6.6240
2023-04-22T05:55:50.339Z,6.5816
2023-04-22T05:56:58.399Z,6.4857
2023-04-22T05:58:06.461Z,6.5017
2023-04-22T05:59:14.663Z,6.2854
2023-04-22T06:00:22.576Z,6.0096
2023-04-22T06:01:30.638Z,5.9283
2023-04-22T06:02:38.835Z,5.8459
2023-04-22T06:03:46.913Z,5.8732
2023-04-22T06:04:55.048Z,5.9039
2023-04-22T06:06:02.936Z,6.0809
2023-04-22T06:07:10.906Z,6.3651
2023-04-22T06:08:18.965Z,6.5671
2023-04-22T06:09:27.147Z,6.3386
2023-04-22T06:10:35.231Z,6.3096
2023-04-22T06:11:43.304Z,6.5002
2023-04-22T06:12:51.417Z,6.5856
2023-04-22T06:13:59.363Z,6.6804
2023-04-22T06:15:07.642Z,6.6024
2023-04-22T06:16:15.651Z,6.8380
2023-04-22T06:17:23.685Z,6.6694
2023-04-22T06:18:31.720Z,6.7540
2023-04-22T06:19:40.084Z,6.9372
2023-04-22T06:20:47.788Z,7.0064
2023-04-22T06:21:55.797Z,7.1422
2023-04-22T06:23:03.870Z,7.2294
2023-04-22T06:24:11.996Z,7.2832
2023-04-22T06:25:20.067Z,7.3991
2023-04-22T06:26:28.198Z,7.4239
2023-04-22T06:27:36.194Z,7.4048
2023-04-22T06:28:44.262Z,7.4157
2023-04-22T06:29:52.482Z,7.4792
2023-04-22T06:31:00.407Z,7.4651
2023-04-22T06:32:08.558Z,7.4722
2023-04-22T06:33:16.650Z,7.4277
2023-04-22T06:34:24.658Z,7.3093
2023-04-22T06:35:32.575Z,7.1412
2023-04-22T06:36:40.657Z,6.8630
2023-04-22T06:37:48.738Z,6.9003
2023-04-22T06:38:56.917Z,7.0783
2023-04-22T06:40:04.905Z,7.0678
2023-04-22T06:41:13.007Z,7.0039
2023-04-22T06:42:21.032Z,6.9032
2023-04-22T06:43:29.152Z,6.8107
2023-04-22T06:44:37.157Z,6.8502
2023-04-22T06:45:45.291Z,6.7888
2023-04-22T06:46:54.758Z,6.8025
2023-04-22T06:48:06.226Z,6.9599
2023-04-22T06:49:14.273Z,7.2326
2023-04-22T06:50:22.352Z,7.2425
2023-04-22T06:51:30.341Z,7.1544
2023-04-22T06:52:38.423Z,7.3677
2023-04-22T06:53:46.487Z,7.6131
2023-04-22T06:54:54.599Z,7.6549
2023-04-22T06:56:02.672Z,7.4029
2023-04-22T06:57:10.705Z,7.3987
2023-04-22T06:58:18.809Z,7.6171
2023-04-22T06:59:26.887Z,7.8510
2023-04-22T07:00:34.963Z,7.8220
2023-04-22T07:01:43.095Z,7.8630
2023-04-22T07:02:51.191Z,7.5977
2023-04-22T07:03:59.129Z,7.3436
2023-04-22T07:05:07.146Z,7.3392
2023-04-22T07:06:15.204Z,7.3287
2023-04-22T07:07:23.256Z,7.3930
2023-04-22T07:08:31.463Z,7.5324
2023-04-22T07:09:39.708Z,7.4039
2023-04-22T07:10:47.558Z,7.7104
2023-04-22T07:11:55.571Z,7.5689
2023-04-22T07:13:03.768Z,7.6923
2023-04-22T07:14:11.688Z,7.7276
2023-04-22T07:15:19.895Z,7.8289
2023-04-22T07:16:27.972Z,7.9563
2023-04-22T07:17:36.010Z,7.9334
2023-04-22T07:18:43.897Z,8.0057
2023-04-22T07:19:51.971Z,8.1378
2023-04-22T07:21:00.035Z,8.3688
2023-04-22T07:22:08.127Z,8.6547
2023-04-22T07:23:16.183Z,8.8051
2023-04-22T07:24:24.383Z,8.6801
2023-04-22T07:25:32.322Z,8.7267
2023-04-22T07:26:40.528Z,8.6197
2023-04-22T07:27:48.514Z,8.5680
2023-04-22T07:28:56.541Z,8.5989
2023-04-22T07:30:04.586Z,8.7223
2023-04-22T07:31:12.683Z,8.6803
2023-04-22T07:32:20.855Z,8.3688
2023-04-22T07:33:28.747Z,8.5203
2023-04-22T07:34:36.791Z,8.6017
2023-04-22T07:35:44.829Z,8.5594
2023-04-22T07:36:52.870Z,8.6227
2023-04-22T07:38:01.035Z,8.5147
2023-04-22T07:39:09.251Z,8.3879
2023-04-22T07:40:17.165Z,8.5415
2023-04-22T07:41:25.245Z,8.6721
2023-04-22T07:42:33.415Z,8.6116
2023-04-22T07:43:41.355Z,8.7244
2023-04-22T07:44:49.455Z,8.6553
2023-04-22T07:45:57.538Z,8.6382
2023-04-22T07:47:05.690Z,8.6391
2023-04-22T07:48:13.622Z,8.6776
2023-04-22T07:49:21.632Z,8.8464
2023-04-22T07:50:29.731Z,8.7925
2023-04-22T07:51:37.827Z,9.0326
2023-04-22T07:52:45.940Z,9.3519
2023-04-22T07:53:53.912Z,9.4644
2023-04-22T07:55:02.162Z,9.3305
2023-04-22T07:56:10.105Z,8.9479
2023-04-22T07:57:18.151Z,8.9225
2023-04-22T07:58:26.234Z,8.8915
2023-04-22T07:59:34.300Z,9.0801
2023-04-22T08:00:42.494Z,9.2924
2023-04-22T08:01:50.651Z,9.4190
2023-04-22T08:02:58.577Z,9.3435
2023-04-22T08:04:06.656Z,9.1346
2023-04-22T08:05:14.634Z,9.0826
2023-04-22T08:06:23.022Z,9.3723
2023-04-22T08:07:33.394Z,9.3670
2023-04-22T08:08:43.734Z,9.5243
2023-04-22T08:09:51.939Z,9.7309
2023-04-22T08:10:59.932Z,9.6260
2023-04-22T08:12:07.906Z,9.6004
2023-04-22T08:13:18.136Z,9.5920
2023-04-22T08:14:28.877Z,9.6235
2023-04-22T08:15:36.940Z,9.7429
2023-04-22T08:16:44.935Z,10.2039
2023-04-22T08:17:53.039Z,10.4742
2023-04-22T08:19:01.280Z,10.4364
2023-04-22T08:20:09.263Z,10.7723
2023-04-22T08:21:17.295Z,11.0445
2023-04-22T08:22:25.344Z,10.7624
2023-04-22T08:23:33.488Z,10.8818
2023-04-22T08:24:41.444Z,10.9861
2023-04-22T08:25:49.583Z,11.1565
2023-04-22T08:26:57.617Z,11.4716
2023-04-22T08:28:05.707Z,11.0319
2023-04-22T08:29:13.743Z,10.7233
2023-04-22T08:30:21.741Z,10.9749
2023-04-22T08:31:29.772Z,11.1858
2023-04-22T08:32:37.877Z,11.3924
2023-04-22T08:33:46.083Z,11.5141
2023-04-22T08:34:57.720Z,11.6692
2023-04-22T08:36:06.984Z,11.8445
2023-04-22T08:37:15.065Z,11.6022
2023-04-22T08:38:23.056Z,11.5917
2023-04-22T08:39:31.298Z,11.7621
2023-04-22T08:40:39.349Z,11.9507
2023-04-22T08:41:47.276Z,12.0705
2023-04-22T08:42:55.425Z,11.6942
2023-04-22T08:44:03.334Z,11.5847
2023-04-22T08:45:11.436Z,11.7117
2023-04-22T08:46:19.471Z,11.7128
2023-04-22T08:47:27.625Z,11.9578
2023-04-22T08:48:35.734Z,12.0268
2023-04-22T08:49:43.641Z,12.2671
2023-04-22T08:50:51.898Z,12.0648
2023-04-22T08:51:59.971Z,11.8586
2023-04-22T08:53:07.912Z,11.9862
2023-04-22T08:54:16.062Z,12.3190
2023-04-22T08:55:24.040Z,12.6515
2023-04-22T08:56:32.125Z,12.7129
2023-04-22T08:57:40.196Z,12.7697
2023-04-22T08:58:48.231Z,12.9341
2023-04-22T08:59:56.242Z,12.6946
2023-04-22T09:01:04.318Z,12.8207
2023-04-22T09:02:12.543Z,12.8004
2023-04-22T09:03:20.574Z,12.9023
2023-04-22T09:04:28.604Z,13.0400
2023-04-22T09:05:36.687Z,13.1588
2023-04-22T09:06:44.664Z,13.4198
2023-04-22T09:07:52.872Z,13.5794
2023-04-22T09:09:00.826Z,13.6956
2023-04-22T09:10:08.862Z,13.8449
2023-04-22T09:11:16.911Z,14.1163
2023-04-22T09:12:24.994Z,14.1604
2023-04-22T09:13:33.014Z,14.2418
2023-04-22T09:14:41.031Z,14.1657
2023-04-22T09:15:49.075Z,14.0589
2023-04-22T09:16:57.388Z,13.9275
2023-04-22T09:18:05.295Z,13.7440
2023-04-22T09:19:13.429Z,13.7021
2023-04-22T09:20:21.488Z,13.6816
2023-04-22T09:21:29.494Z,13.7690
2023-04-22T09:22:37.523Z,14.0763
2023-04-22T09:23:45.720Z,14.2741
2023-04-22T09:24:53.723Z,13.9838
2023-04-22T09:26:01.744Z,14.0454
2023-04-22T09:27:09.768Z,14.1055
2023-04-22T09:28:17.919Z,14.4568
2023-04-22T09:29:25.837Z,14.6948
2023-04-22T09:30:34.082Z,14.4232
2023-04-22T09:31:41.994Z,14.5760
2023-04-22T09:32:50.146Z,14.6283
2023-04-22T09:33:58.146Z,13.9952
2023-04-22T09:35:06.311Z,13.4501
2023-04-22T09:36:14.291Z,13.1369
2023-04-22T09:37:22.337Z,13.4278
2023-04-22T09:38:30.432Z,13.9315
2023-04-22T09:39:38.711Z,14.1968
2023-04-22T09:40:46.488Z,13.9407
2023-04-22T09:41:54.659Z,14.1840
2023-04-22T09:43:02.601Z,14.6859
2023-04-22T09:44:10.711Z,15.2621
2023-04-22T09:45:18.940Z,15.4383
2023-04-22T09:46:26.742Z,15.4647
2023-04-22T09:47:34.916Z,15.0471
2023-04-22T09:48:43.031Z,14.6521
2023-04-22T09:49:51.083Z,14.6163
2023-04-22T09:50:59.072Z,14.5464
2023-04-22T09:52:07.174Z,14.4637
2023-04-22T09:53:15.216Z,14.4841
2023-04-22T09:54:23.242Z,14.2630
2023-04-22T09:55:31.477Z,14.3664
2023-04-22T09:56:39.394Z,14.3313
2023-04-22T09:57:47.432Z,14.5518
2023-04-22T09:58:55.446Z,14.9336
2023-04-22T10:00:03.472Z,15.4332
2023-04-22T10:01:11.594Z,15.3126
2023-04-22T10:02:19.698Z,15.2714
2023-04-22T10:03:27.853Z,15.4511
2023-04-22T10:04:36.073Z,15.3199
2023-04-22T10:05:43.854Z,15.3142
2023-04-22T10:06:51.931Z,15.2411
2023-04-22T10:08:00.183Z,15.3491
2023-04-22T10:09:09.411Z,15.4172
2023-04-22T10:10:16.102Z,15.1242
2023-04-22T10:11:24.540Z,15.0391
2023-04-22T10:12:35.532Z,14.9245
2023-04-22T10:13:45.112Z,14.6679
2023-04-22T10:14:53.372Z,14.8493
2023-04-22T10:16:01.336Z,15.4383
2023-04-22T10:17:09.386Z,15.5268
2023-04-22T10:18:17.381Z,15.8982
2023-04-22T10:19:25.609Z,15.6535
2023-04-22T10:20:33.620Z,16.5419
2023-04-22T10:21:41.675Z,17.1443
2023-04-22T10:22:49.723Z,17.7512
2023-04-22T10:23:57.773Z,18.2637
2023-04-22T10:25:06.027Z,19.3967
2023-04-22T10:26:13.845Z,20.3561
2023-04-22T10:27:21.878Z,20.2718
2023-04-22T10:28:29.998Z,20.2329
2023-04-22T10:29:38.316Z,19.9405
2023-04-22T10:30:46.185Z,19.9407
2023-04-22T10:31:54.260Z,20.0683
2023-04-22T10:33:02.328Z,20.8309
2023-04-22T10:34:10.313Z,20.7962
2023-04-22T10:35:18.496Z,21.4447
2023-04-22T10:36:26.486Z,21.8397
2023-04-22T10:37:34.514Z,20.5236
2023-04-22T10:38:42.556Z,20.2724
2023-04-22T10:39:50.740Z,20.6321
2023-04-22T10:40:58.726Z,21.3720
2023-04-22T10:42:06.727Z,22.7520
2023-04-22T10:43:14.778Z,22.6189
2023-04-22T10:44:23.006Z,22.0073
2023-04-22T10:45:30.951Z,22.1338
2023-04-22T10:46:39.099Z,22.0606
2023-04-22T10:47:47.256Z,22.4960
2023-04-22T10:48:55.225Z,22.3234
2023-04-22T10:50:03.291Z,22.7362
2023-04-22T10:51:11.506Z,23.0810
2023-04-22T10:52:19.531Z,22.8987
2023-04-22T10:53:27.568Z,22.6532
2023-04-22T10:54:35.606Z,22.9088
2023-04-22T10:55:43.780Z,22.6202
2023-04-22T10:56:57.584Z,20.7618
2023-04-22T10:58:04.648Z,20.6844
2023-04-22T10:59:12.738Z,21.6339
2023-04-22T11:00:20.861Z,21.0252
2023-04-22T11:01:28.917Z,19.9594
2023-04-22T11:02:36.951Z,19.9403
2023-04-22T11:03:45.038Z,20.3878
2023-04-22T11:04:53.083Z,20.1189
2023-04-22T11:06:01.081Z,19.3916
2023-04-22T11:07:09.251Z,20.1019
2023-04-22T11:08:17.201Z,20.0849
2023-04-22T11:09:25.161Z,19.4200
2023-04-22T11:10:33.284Z,20.0166
2023-04-22T11:11:41.328Z,19.9140
2023-04-22T11:12:49.435Z,19.6733
2023-04-22T11:13:57.482Z,19.0507
2023-04-22T11:15:05.615Z,18.7900
2023-04-22T11:16:13.659Z,18.7764
2023-04-22T11:17:21.704Z,19.2302
2023-04-22T11:18:29.758Z,19.3092
2023-04-22T11:19:38.212Z,19.6788
2023-04-22T11:20:45.932Z,19.0578
2023-04-22T11:21:54.088Z,18.7013
2023-04-22T11:23:02.093Z,18.8047
2023-04-22T11:24:10.033Z,18.6353
2023-04-22T11:25:18.077Z,18.4632
2023-04-22T11:26:26.182Z,18.6237
2023-04-22T11:27:34.234Z,18.3265
2023-04-22T11:28:42.344Z,18.7045
2023-04-22T11:29:50.391Z,18.5409
2023-04-22T11:30:58.469Z,17.7596
2023-04-22T11:32:06.426Z,17.9040
2023-04-22T11:33:14.515Z,18.2674
2023-04-22T11:34:22.688Z,18.8735
2023-04-22T11:35:30.809Z,19.4646
2023-04-22T11:36:38.820Z,19.8617
2023-04-22T11:37:46.863Z,20.2960
2023-04-22T11:38:54.811Z,20.0012
2023-04-22T11:40:21.373Z,20.2285
2023-04-22T11:41:15.897Z,20.5929
2023-04-22T11:42:24.079Z,19.3635
2023-04-22T11:43:31.908Z,19.1200
2023-04-22T11:44:39.975Z,19.7540
2023-04-22T11:45:48.094Z,19.6134
2023-04-22T11:46:56.317Z,18.9973
2023-04-22T11:48:04.220Z,18.5481
2023-04-22T11:49:12.373Z,18.5243
2023-04-22T11:50:20.241Z,18.4207
2023-04-22T11:51:28.347Z,18.6589
2023-04-22T11:52:36.372Z,19.2176
2023-04-22T11:53:44.454Z,19.4587
2023-04-22T11:54:52.495Z,20.3269
2023-04-22T11:56:00.713Z,20.1358
2023-04-22T11:57:08.784Z,19.3279
2023-04-22T11:58:16.703Z,19.0757
2023-04-22T11:59:24.923Z,19.9970
2023-04-22T12:00:32.945Z,21.3245
2023-04-22T12:01:41.118Z,21.3857
2023-04-22T12:02:49.132Z,21.5786
2023-04-22T12:03:57.208Z,21.1595
2023-04-22T12:05:05.127Z,19.7519
2023-04-22T12:06:13.097Z,19.1594
2023-04-22T12:07:21.186Z,18.7982
2023-04-22T12:08:29.238Z,17.8462
2023-04-22T12:09:37.484Z,17.6871
2023-04-22T12:10:45.384Z,17.3766
2023-04-22T12:11:53.434Z,17.3507
2023-04-22T12:13:01.578Z,17.0413
2023-04-22T12:14:09.569Z,16.8153
2023-04-22T12:15:18.751Z,16.9251
2023-04-22T12:16:25.749Z,16.6879
2023-04-22T12:17:33.727Z,16.9894
2023-04-22T12:18:41.799Z,16.7924
2023-04-22T12:19:49.916Z,16.2947
2023-04-22T12:20:58.001Z,16.4885
2023-04-22T12:22:06.246Z,16.6121
2023-04-22T12:23:14.012Z,16.5700
2023-04-22T12:24:22.124Z,16.5580
2023-04-22T12:25:30.145Z,16.4336
2023-04-22T12:26:38.202Z,16.7149
2023-04-22T12:27:46.257Z,16.6861
2023-04-22T12:28:54.318Z,16.9776
2023-04-22T12:30:02.466Z,17.0981
2023-04-22T12:31:10.558Z,16.9703
2023-04-22T12:32:18.550Z,16.3981
2023-04-22T12:33:26.554Z,16.4695
2023-04-22T12:34:34.653Z,16.6522
2023-04-22T12:35:42.763Z,17.0186
2023-04-22T12:36:50.753Z,17.3383
2023-04-22T12:37:58.830Z,17.5851
2023-04-22T12:39:06.861Z,17.7552
2023-04-22T12:40:14.960Z,17.8956
2023-04-22T12:41:23.281Z,17.8723
2023-04-22T12:42:31.138Z,17.8660
2023-04-22T12:43:39.235Z,18.0005
2023-04-22T12:44:47.188Z,18.3929
2023-04-22T12:45:55.329Z,18.3728
2023-04-22T12:47:03.310Z,18.0785
2023-04-22T12:48:11.717Z,17.6210
2023-04-22T12:49:19.477Z,17.4699
2023-04-22T12:50:27.621Z,17.3236
2023-04-22T12:51:35.955Z,17.8298
2023-04-22T12:52:43.651Z,18.2103
2023-04-22T12:53:51.691Z,17.9614
2023-04-22T12:54:59.772Z,18.0612
2023-04-22T12:56:07.896Z,18.7541
2023-04-22T12:57:15.866Z,18.7845
2023-04-22T12:58:23.912Z,18.8346
2023-04-22T12:59:32.109Z,18.9286
2023-04-22T13:00:40.119Z,18.9960
2023-04-22T13:01:48.267Z,18.4318
2023-04-22T13:02:56.307Z,18.1197
2023-04-22T13:04:04.543Z,18.0236
2023-04-22T13:05:12.442Z,17.4571
2023-04-22T13:06:20.472Z,17.8418
2023-04-22T13:07:28.382Z,17.9092
2023-04-22T13:08:36.459Z,17.9200
2023-04-22T13:09:44.515Z,17.5828
2023-04-22T13:10:52.685Z,17.8008
2023-04-22T13:12:00.794Z,18.0806
2023-04-22T13:14:21.694Z,18.5988
2023-04-22T13:15:29.798Z,18.9746
2023-04-22T13:16:37.962Z,19.7965
2023-04-22T13:17:47.624Z,19.5281
2023-04-22T13:18:58.817Z,19.4880
2023-04-22T13:20:06.798Z,19.1545
2023-04-22T13:21:14.902Z,18.7803
2023-04-22T13:22:22.932Z,18.3700
2023-04-22T13:23:31.130Z,17.4417
2023-04-22T13:24:39.126Z,17.0573
2023-04-22T13:25:47.131Z,17.1706
2023-04-22T13:26:55.289Z,17.0382
2023-04-22T13:28:03.315Z,16.6282
2023-04-22T13:29:11.392Z,16.4347
2023-04-22T13:30:19.508Z,16.3722
2023-04-22T13:31:27.505Z,16.3150
2023-04-22T13:32:35.549Z,16.4603
2023-04-22T13:33:43.565Z,16.4826
2023-04-22T13:34:51.640Z,16.1895
2023-04-22T13:35:59.811Z,15.9005
2023-04-22T13:37:07.746Z,16.0594
2023-04-22T13:38:15.824Z,16.2272
2023-04-22T13:39:23.874Z,15.9283
2023-04-22T13:40:32.035Z,15.9650
2023-04-22T13:41:40.117Z,15.9774
2023-04-22T13:42:48.152Z,15.8852
2023-04-22T13:43:56.260Z,15.9650
2023-04-22T13:45:04.316Z,16.0107
2023-04-22T13:46:12.377Z,16.0136
2023-04-22T13:47:20.490Z,15.7365
2023-04-22T13:48:28.675Z,15.4814
2023-04-22T13:49:36.491Z,15.3800
2023-04-22T13:50:44.578Z,15.3044
2023-04-22T13:51:52.586Z,15.5900
2023-04-22T13:53:00.628Z,15.5720
2023-04-22T13:54:08.736Z,15.6392
2023-04-22T13:55:16.860Z,15.6659
2023-04-22T13:56:24.806Z,15.6625
2023-04-22T13:57:32.939Z,15.6924
2023-04-22T13:58:41.326Z,15.9470
2023-04-22T13:59:49.147Z,15.8706
2023-04-22T14:00:57.246Z,15.7246